createdAt,value
2018-08-04T00:00:42.290Z,0.00
2018-08-04T00:01:42.293Z,0.00
2018-08-04T00:02:42.296Z,0.00
2018-08-04T00:03:42.298Z,0.00
2018-08-04T00:04:42.310Z,0.00
2018-08-04T00:05:42.310Z,0.00
2018-08-04T00:06:42.308Z,0.00
2018-08-04T00:07:42.313Z,0.00
2018-08-04T00:08:42.319Z,0.00
2018-08-04T00:09:42.321Z,0.00
2018-08-04T00:10:42.323Z,0.00
2018-08-04T00:11:42.327Z,0.00
2018-08-04T00:12:42.326Z,0.00
2018-08-04T00:13:42.327Z,0.00
2018-08-04T00:14:42.330Z,0.00
2018-08-04T00:15:42.332Z,0.00
2018-08-04T00:16:42.344Z,0.00
2018-08-04T00:17:42.345Z,0.00
2018-08-04T00:18:42.348Z,0.00
2018-08-04T00:19:42.350Z,0.00
2018-08-04T00:20:42.348Z,0.00
2018-08-04T00:21:42.350Z,0.00
2018-08-04T00:22:42.359Z,0.00
2018-08-04T00:23:42.360Z,0.00
2018-08-04T00:24:42.359Z,0.00
2018-08-04T00:25:42.363Z,0.00
2018-08-04T00:26:42.365Z,0.00
2018-08-04T00:27:42.382Z,0.00
2018-08-04T00:28:42.375Z,0.00
2018-08-04T00:29:42.378Z,0.00
2018-08-04T00:30:42.382Z,0.00
2018-08-04T00:31:42.384Z,0.00
2018-08-04T00:32:42.381Z,0.00
2018-08-04T00:33:42.385Z,0.00
2018-08-04T00:34:42.388Z,0.00
2018-08-04T00:35:42.391Z,0.00
2018-08-04T00:36:42.398Z,0.00
2018-08-04T00:37:42.403Z,0.00
2018-08-04T00:38:42.399Z,0.00
2018-08-04T00:39:42.401Z,0.00
2018-08-04T00:40:42.408Z,0.00
2018-08-04T00:41:42.412Z,0.00
2018-08-04T00:42:42.415Z,0.00
2018-08-04T00:43:42.418Z,0.00
2018-08-04T00:44:42.415Z,0.00
2018-08-04T00:45:42.420Z,0.00
2018-08-04T00:46:42.422Z,0.00
2018-08-04T00:47:42.423Z,0.00
2018-08-04T00:48:42.432Z,0.00
2018-08-04T00:49:42.434Z,0.00
2018-08-04T00:50:42.436Z,0.00
2018-08-04T00:51:42.439Z,0.00
2018-08-04T00:52:42.437Z,0.00
2018-08-04T00:53:42.439Z,0.00
2018-08-04T00:54:42.446Z,0.00
2018-08-04T00:55:42.449Z,0.00
2018-08-04T00:56:42.451Z,0.00
2018-08-04T00:57:42.453Z,0.00
2018-08-04T00:58:42.454Z,0.00
2018-08-04T00:59:42.456Z,0.00
2018-08-04T01:00:42.463Z,0.00
2018-08-04T01:01:42.466Z,0.00
2018-08-04T01:02:42.469Z,0.00
2018-08-04T01:03:42.471Z,0.00
2018-08-04T01:04:42.468Z,0.00
2018-08-04T01:05:42.472Z,0.00
2018-08-04T01:06:42.474Z,0.00
2018-08-04T01:07:42.477Z,0.00
2018-08-04T01:08:42.484Z,0.00
2018-08-04T01:09:42.487Z,0.00
2018-08-04T01:10:42.487Z,0.00
2018-08-04T01:11:42.485Z,0.00
2018-08-04T01:12:42.493Z,0.00
2018-08-04T01:13:42.496Z,0.00
2018-08-04T01:14:42.501Z,0.00
2018-08-04T01:15:42.501Z,0.00
2018-08-04T01:16:42.499Z,0.00
2018-08-04T01:17:42.503Z,0.00
2018-08-04T01:18:42.505Z,0.00
2018-08-04T01:19:42.506Z,0.00
2018-08-04T01:20:42.514Z,0.00
2018-08-04T01:21:42.519Z,0.00
2018-08-04T01:22:42.519Z,0.00
2018-08-04T01:23:42.521Z,0.00
2018-08-04T01:24:42.520Z,0.00
2018-08-04T01:25:42.525Z,0.00
2018-08-04T01:26:42.528Z,0.00
2018-08-04T01:27:42.533Z,0.00
2018-08-04T01:28:42.529Z,0.00
2018-08-04T01:29:42.531Z,0.00
2018-08-04T01:30:42.535Z,0.00
2018-08-04T01:31:42.550Z,0.00
2018-08-04T01:32:42.544Z,0.00
2018-08-04T01:33:42.547Z,0.00
2018-08-04T01:34:42.547Z,0.00
2018-08-04T01:35:42.547Z,0.00
2018-08-04T01:36:42.554Z,0.00
2018-08-04T01:37:42.559Z,0.00
2018-08-04T01:38:42.557Z,0.00
2018-08-04T01:39:42.559Z,0.00
2018-08-04T01:40:42.557Z,0.00
2018-08-04T01:41:42.560Z,0.00
2018-08-04T01:42:42.569Z,0.00
2018-08-04T01:43:42.568Z,0.00
2018-08-04T01:44:42.567Z,0.00
2018-08-04T01:45:42.568Z,0.00
2018-08-04T01:46:42.572Z,0.00
2018-08-04T01:47:42.576Z,0.00
2018-08-04T01:48:42.581Z,0.00
2018-08-04T01:49:42.584Z,0.00
2018-08-04T01:50:42.586Z,0.00
2018-08-04T01:51:42.589Z,0.00
2018-08-04T01:52:42.587Z,0.00
2018-08-04T01:53:42.620Z,0.00
2018-08-04T01:54:42.590Z,0.00
2018-08-04T01:55:42.591Z,0.00
2018-08-04T01:56:42.598Z,0.00
2018-08-04T01:57:42.600Z,0.00
2018-08-04T01:58:42.600Z,0.00
2018-08-04T01:59:42.603Z,0.00
2018-08-04T02:00:42.607Z,0.00
2018-08-04T02:01:42.610Z,0.00
2018-08-04T02:02:42.614Z,0.00
2018-08-04T02:03:42.614Z,0.00
2018-08-04T02:04:42.611Z,0.00
2018-08-04T02:05:42.613Z,0.00
2018-08-04T02:06:42.616Z,0.00
2018-08-04T02:07:42.617Z,0.00
2018-08-04T02:08:42.627Z,0.00
2018-08-04T02:09:42.630Z,0.00
2018-08-04T02:10:42.628Z,0.00
2018-08-04T02:11:42.631Z,0.00
2018-08-04T02:12:42.627Z,0.00
2018-08-04T02:13:42.675Z,0.00
2018-08-04T02:14:42.637Z,0.00
2018-08-04T02:15:42.638Z,0.00
2018-08-04T02:16:42.636Z,0.00
2018-08-04T02:17:42.638Z,0.00
2018-08-04T02:18:42.640Z,0.00
2018-08-04T02:19:42.641Z,0.00
2018-08-04T02:20:42.650Z,0.00
2018-08-04T02:21:42.650Z,0.00
2018-08-04T02:22:42.653Z,0.00
2018-08-04T02:23:42.654Z,0.00
2018-08-04T02:24:42.652Z,0.00
2018-08-04T02:25:42.653Z,0.00
2018-08-04T02:26:42.654Z,0.00
2018-08-04T02:27:42.657Z,0.00
2018-08-04T02:28:42.668Z,0.00
2018-08-04T02:29:42.665Z,0.00
2018-08-04T02:30:42.671Z,0.00
2018-08-04T02:31:42.665Z,0.00
2018-08-04T02:32:42.670Z,0.00
2018-08-04T02:33:42.673Z,0.00
2018-08-04T02:34:42.675Z,0.00
2018-08-04T02:35:42.675Z,0.00
2018-08-04T02:36:42.673Z,0.00
2018-08-04T02:37:42.675Z,0.00
2018-08-04T02:38:42.675Z,0.00
2018-08-04T02:39:42.681Z,0.00
2018-08-04T02:40:42.688Z,0.00
2018-08-04T02:41:42.684Z,0.00
2018-08-04T02:42:42.689Z,0.00
2018-08-04T02:43:42.695Z,0.00
2018-08-04T02:44:42.687Z,0.00
2018-08-04T02:45:42.688Z,0.00
2018-08-04T02:46:42.694Z,0.00
2018-08-04T02:47:42.698Z,0.00
2018-08-04T02:48:42.692Z,0.00
2018-08-04T02:49:42.693Z,0.00
2018-08-04T02:50:42.696Z,0.00
2018-08-04T02:51:42.695Z,0.00
2018-08-04T02:52:42.702Z,0.00
2018-08-04T02:53:42.703Z,0.00
2018-08-04T02:54:42.705Z,0.00
2018-08-04T02:55:42.706Z,0.00
2018-08-04T02:56:42.705Z,0.00
2018-08-04T02:57:42.704Z,0.00
2018-08-04T02:58:42.706Z,0.00
2018-08-04T02:59:42.712Z,0.00
2018-08-04T03:00:42.720Z,0.00
2018-08-04T03:01:42.716Z,0.00
2018-08-04T03:02:42.712Z,0.00
2018-08-04T03:03:42.713Z,0.00
2018-08-04T03:04:42.719Z,0.00
2018-08-04T03:05:42.722Z,0.00
2018-08-04T03:06:42.722Z,0.00
2018-08-04T03:07:42.725Z,0.00
2018-08-04T03:08:42.720Z,0.00
2018-08-04T03:09:42.721Z,0.00
2018-08-04T03:10:42.724Z,0.00
2018-08-04T03:11:42.725Z,0.00
2018-08-04T03:12:42.729Z,0.00
2018-08-04T03:13:42.731Z,0.00
2018-08-04T03:14:42.738Z,0.00
2018-08-04T03:15:42.735Z,0.00
2018-08-04T03:16:42.732Z,0.00
2018-08-04T03:17:42.731Z,0.00
2018-08-04T03:18:42.738Z,0.00
2018-08-04T03:19:42.738Z,0.00
2018-08-04T03:20:42.735Z,0.00
2018-08-04T03:21:42.739Z,0.00
2018-08-04T03:22:42.739Z,0.00
2018-08-04T03:23:42.738Z,0.00
2018-08-04T03:24:42.744Z,0.00
2018-08-04T03:25:42.745Z,4.00
2018-08-04T03:26:42.746Z,4.00
2018-08-04T03:27:42.749Z,0.00
2018-08-04T03:28:42.747Z,0.00
2018-08-04T03:29:42.744Z,4.00
2018-08-04T03:30:42.747Z,0.00
2018-08-04T03:31:42.747Z,4.00
2018-08-04T03:32:42.752Z,4.00
2018-08-04T03:33:42.755Z,4.00
2018-08-04T03:34:42.750Z,4.00
2018-08-04T03:35:42.751Z,8.00
2018-08-04T03:36:42.757Z,8.00
2018-08-04T03:37:42.761Z,8.00
2018-08-04T03:38:42.758Z,12.00
2018-08-04T03:39:42.759Z,12.00
2018-08-04T03:40:42.756Z,12.00
2018-08-04T03:41:42.758Z,16.00
2018-08-04T03:42:42.759Z,16.00
2018-08-04T03:43:42.759Z,20.00
2018-08-04T03:44:42.765Z,28.00
2018-08-04T03:45:42.768Z,32.00
2018-08-04T03:46:42.767Z,32.00
2018-08-04T03:47:42.767Z,40.00
2018-08-04T03:48:42.764Z,48.00
2018-08-04T03:49:42.766Z,52.00
2018-08-04T03:50:42.771Z,56.00
2018-08-04T03:51:42.771Z,60.00
2018-08-04T03:52:42.770Z,68.00
2018-08-04T03:53:42.769Z,76.00
2018-08-04T03:54:42.778Z,88.00
2018-08-04T03:55:42.771Z,96.00
2018-08-04T03:56:42.777Z,108.00
2018-08-04T03:57:42.778Z,112.00
2018-08-04T03:58:42.784Z,124.00
2018-08-04T03:59:42.828Z,132.00
2018-08-04T04:00:42.776Z,140.00
2018-08-04T04:01:42.777Z,152.00
2018-08-04T04:02:42.782Z,156.00
2018-08-04T04:03:42.779Z,168.00
2018-08-04T04:04:42.784Z,172.00
2018-08-04T04:05:42.787Z,184.00
2018-08-04T04:06:42.813Z,196.00
2018-08-04T04:07:42.784Z,208.00
2018-08-04T04:08:42.795Z,228.00
2018-08-04T04:09:42.793Z,240.00
2018-08-04T04:10:42.793Z,252.00
2018-08-04T04:11:42.792Z,260.00
2018-08-04T04:12:42.789Z,276.00
2018-08-04T04:13:42.791Z,296.00
2018-08-04T04:14:42.792Z,316.00
2018-08-04T04:15:42.792Z,340.00
2018-08-04T04:16:42.800Z,368.00
2018-08-04T04:17:42.801Z,388.00
2018-08-04T04:18:42.801Z,408.00
2018-08-04T04:19:42.800Z,420.00
2018-08-04T04:20:42.798Z,432.00
2018-08-04T04:21:42.799Z,440.00
2018-08-04T04:22:42.805Z,448.00
2018-08-04T04:23:42.806Z,456.00
2018-08-04T04:24:42.803Z,468.00
2018-08-04T04:25:42.805Z,500.00
2018-08-04T04:26:42.805Z,528.00
2018-08-04T04:27:42.806Z,556.00
2018-08-04T04:28:42.813Z,596.00
2018-08-04T04:29:42.814Z,624.00
2018-08-04T04:30:42.815Z,652.00
2018-08-04T04:31:42.815Z,688.00
2018-08-04T04:32:42.812Z,720.00
2018-08-04T04:33:42.813Z,748.00
2018-08-04T04:34:42.815Z,788.00
2018-08-04T04:35:42.815Z,844.00
2018-08-04T04:36:42.820Z,924.00
2018-08-04T04:37:42.822Z,988.00
2018-08-04T04:38:42.819Z,1000.00
2018-08-04T04:39:42.820Z,1028.00
2018-08-04T04:40:42.825Z,1064.00
2018-08-04T04:41:42.827Z,1100.00
2018-08-04T04:42:42.830Z,1128.00
2018-08-04T04:43:42.831Z,1144.00
2018-08-04T04:44:42.827Z,1192.00
2018-08-04T04:45:42.829Z,1252.00
2018-08-04T04:46:42.829Z,1308.00
2018-08-04T04:47:42.831Z,1324.00
2018-08-04T04:48:42.837Z,1364.00
2018-08-04T04:49:42.836Z,1364.00
2018-08-04T04:50:42.839Z,1324.00
2018-08-04T04:51:42.840Z,1220.00
2018-08-04T04:52:42.837Z,1156.00
2018-08-04T04:53:42.839Z,1092.00
2018-08-04T04:54:42.845Z,1044.00
2018-08-04T04:55:42.845Z,1000.00
2018-08-04T04:56:42.842Z,968.00
2018-08-04T04:57:42.845Z,924.00
2018-08-04T04:58:42.847Z,864.00
2018-08-04T04:59:42.845Z,856.00
2018-08-04T05:00:42.852Z,880.00
2018-08-04T05:01:42.857Z,932.00
2018-08-04T05:02:42.855Z,1032.00
2018-08-04T05:03:42.855Z,1164.00
2018-08-04T05:04:42.853Z,1300.00
2018-08-04T05:05:42.855Z,1536.00
2018-08-04T05:06:42.857Z,2024.00
2018-08-04T05:07:42.860Z,1684.00
2018-08-04T05:08:42.914Z,1744.00
2018-08-04T05:09:42.866Z,1976.00
2018-08-04T05:10:42.865Z,2096.00
2018-08-04T05:11:42.862Z,2188.00
2018-08-04T05:12:42.870Z,2288.00
2018-08-04T05:13:42.872Z,2372.00
2018-08-04T05:14:42.871Z,2472.00
2018-08-04T05:15:42.873Z,2624.00
2018-08-04T05:16:42.870Z,2828.00
2018-08-04T05:17:42.873Z,2976.00
2018-08-04T05:18:42.873Z,3136.00
2018-08-04T05:19:42.874Z,3232.00
2018-08-04T05:20:42.898Z,3260.00
2018-08-04T05:21:42.882Z,3280.00
2018-08-04T05:22:42.885Z,3352.00
2018-08-04T05:23:42.886Z,3448.00
2018-08-04T05:24:42.886Z,3552.00
2018-08-04T05:25:42.884Z,3824.00
2018-08-04T05:26:42.892Z,3800.00
2018-08-04T05:27:42.897Z,5844.00
2018-08-04T05:28:42.894Z,5536.00
2018-08-04T05:29:42.891Z,5280.00
2018-08-04T05:30:42.892Z,3968.00
2018-08-04T05:31:42.895Z,4104.00
2018-08-04T05:32:42.900Z,3816.00
2018-08-04T05:33:42.902Z,3836.00
2018-08-04T05:34:42.905Z,3828.00
2018-08-04T05:35:42.908Z,3828.00
2018-08-04T05:36:42.905Z,3932.00
2018-08-04T05:37:42.909Z,3944.00
2018-08-04T05:38:42.911Z,3872.00
2018-08-04T05:39:42.912Z,3760.00
2018-08-04T05:40:42.921Z,3668.00
2018-08-04T05:41:42.922Z,3656.00
2018-08-04T05:42:42.921Z,3644.00
2018-08-04T05:43:42.994Z,3564.00
2018-08-04T05:44:42.932Z,3428.00
2018-08-04T05:45:42.937Z,3428.00
2018-08-04T05:46:42.936Z,3396.00
2018-08-04T05:47:42.940Z,3360.00
2018-08-04T05:48:42.936Z,3752.00
2018-08-04T05:49:42.939Z,3272.00
2018-08-04T05:50:42.942Z,3228.00
2018-08-04T05:51:42.943Z,3208.00
2018-08-04T05:52:42.950Z,3228.00
2018-08-04T05:53:42.954Z,3308.00
2018-08-04T05:54:42.958Z,3404.00
2018-08-04T05:55:42.959Z,3496.00
2018-08-04T05:56:42.958Z,3564.00
2018-08-04T05:57:42.960Z,3624.00
2018-08-04T05:58:42.968Z,3668.00
2018-08-04T05:59:42.970Z,3792.00
2018-08-04T06:00:42.967Z,3812.00
2018-08-04T06:01:42.972Z,3824.00
2018-08-04T06:02:42.973Z,3796.00
2018-08-04T06:03:42.976Z,3880.00
2018-08-04T06:04:42.982Z,4008.00
2018-08-04T06:05:42.986Z,4136.00
2018-08-04T06:06:42.988Z,4280.00
2018-08-04T06:07:42.991Z,4344.00
2018-08-04T06:08:42.988Z,4352.00
2018-08-04T06:09:43.033Z,4460.00
2018-08-04T06:10:42.994Z,4664.00
2018-08-04T06:11:42.996Z,4892.00
2018-08-04T06:12:43.004Z,5236.00
2018-08-04T06:13:43.006Z,5336.00
2018-08-04T06:14:43.004Z,5268.00
2018-08-04T06:15:43.006Z,5312.00
2018-08-04T06:16:43.015Z,5452.00
2018-08-04T06:17:43.018Z,5640.00
2018-08-04T06:18:43.023Z,5888.00
2018-08-04T06:19:43.022Z,6116.00
2018-08-04T06:20:43.021Z,6496.00
2018-08-04T06:21:43.023Z,7388.00
2018-08-04T06:22:43.026Z,6272.00
2018-08-04T06:23:43.029Z,6512.00
2018-08-04T06:24:43.036Z,6844.00
2018-08-04T06:25:43.039Z,6380.00
2018-08-04T06:26:43.043Z,7188.00
2018-08-04T06:27:43.046Z,6288.00
2018-08-04T06:28:43.043Z,5876.00
2018-08-04T06:29:43.047Z,5904.00
2018-08-04T06:30:43.075Z,5856.00
2018-08-04T06:31:43.057Z,5948.00
2018-08-04T06:32:43.055Z,6016.00
2018-08-04T06:33:43.062Z,6040.00
2018-08-04T06:34:43.062Z,6140.00
2018-08-04T06:35:43.064Z,6556.00
2018-08-04T06:36:43.075Z,6284.00
2018-08-04T06:37:43.076Z,6120.00
2018-08-04T06:38:43.080Z,6560.00
2018-08-04T06:39:43.082Z,6616.00
2018-08-04T06:40:43.082Z,6496.00
2018-08-04T06:41:43.138Z,6592.00
2018-08-04T06:42:43.089Z,6808.00
2018-08-04T06:43:43.100Z,6848.00
2018-08-04T06:44:43.101Z,6820.00
2018-08-04T06:45:43.104Z,6948.00
2018-08-04T06:46:43.102Z,7028.00
2018-08-04T06:47:43.123Z,7260.00
2018-08-04T06:48:43.114Z,7156.00
2018-08-04T06:49:43.119Z,7740.00
2018-08-04T06:50:43.120Z,9056.00
2018-08-04T06:51:43.123Z,8604.00
2018-08-04T06:52:43.165Z,9372.00
2018-08-04T06:53:43.127Z,8792.00
2018-08-04T06:54:43.131Z,10544.00
2018-08-04T06:55:43.135Z,13520.00
2018-08-04T06:56:43.143Z,15616.00
2018-08-04T06:57:43.147Z,16064.00
2018-08-04T06:58:43.152Z,18944.00
2018-08-04T06:59:43.154Z,20256.00
2018-08-04T07:00:43.154Z,22144.00
2018-08-04T07:01:43.159Z,19936.00
2018-08-04T07:02:43.169Z,17472.00
2018-08-04T07:03:43.173Z,18592.00
2018-08-04T07:04:43.174Z,18464.00
2018-08-04T07:05:43.183Z,29856.00
2018-08-04T07:06:43.185Z,25728.00
2018-08-04T07:07:43.191Z,25536.00
2018-08-04T07:08:43.202Z,24640.00
2018-08-04T07:09:43.209Z,25024.00
2018-08-04T07:10:43.215Z,25280.00
2018-08-04T07:11:43.221Z,23872.00
2018-08-04T07:12:43.223Z,24416.00
2018-08-04T07:13:43.265Z,22144.00
2018-08-04T07:14:43.238Z,28480.00
2018-08-04T07:15:43.244Z,30816.00
2018-08-04T07:16:43.257Z,27136.00
2018-08-04T07:17:43.265Z,29472.00
2018-08-04T07:18:43.268Z,36096.00
2018-08-04T07:19:43.275Z,28960.00
2018-08-04T07:20:43.289Z,34464.00
2018-08-04T07:21:43.296Z,22816.00
2018-08-04T07:22:43.307Z,24096.00
2018-08-04T07:23:43.315Z,20320.00
2018-08-04T07:24:43.321Z,18848.00
2018-08-04T07:25:43.327Z,17312.00
2018-08-04T07:26:43.338Z,15716.00
2018-08-04T07:27:43.343Z,18432.00
2018-08-04T07:28:43.360Z,16128.00
2018-08-04T07:29:43.366Z,20128.00
2018-08-04T07:30:43.381Z,17184.00
2018-08-04T07:31:43.382Z,18176.00
2018-08-04T07:32:43.385Z,24288.00
2018-08-04T07:33:43.395Z,30272.00
2018-08-04T07:34:43.407Z,36672.00
2018-08-04T07:35:43.414Z,51008.00
2018-08-04T07:36:43.418Z,50976.00
2018-08-04T07:37:43.429Z,49280.00
2018-08-04T07:38:43.435Z,51008.00
2018-08-04T07:39:43.442Z,52288.00
2018-08-04T07:40:43.459Z,58560.00
2018-08-04T07:41:43.475Z,57152.00
2018-08-04T07:42:43.475Z,67200.00
2018-08-04T07:43:43.480Z,54400.00
2018-08-04T07:44:43.485Z,55168.00
2018-08-04T07:45:43.494Z,64896.00
2018-08-04T07:46:43.506Z,69920.00
2018-08-04T07:47:43.512Z,63104.00
2018-08-04T07:48:43.527Z,69280.00
2018-08-04T07:49:43.536Z,56640.00
2018-08-04T07:50:43.548Z,42752.00
2018-08-04T07:51:43.551Z,50912.00
2018-08-04T07:52:43.566Z,35072.00
2018-08-04T07:53:43.577Z,30048.00
2018-08-04T07:54:43.589Z,30720.00
2018-08-04T07:55:43.597Z,22432.00
2018-08-04T07:56:43.602Z,27136.00
2018-08-04T07:57:43.616Z,46400.00
2018-08-04T07:58:43.622Z,66016.00
2018-08-04T07:59:43.631Z,48672.00
2018-08-04T08:00:43.648Z,66624.00
2018-08-04T08:01:43.656Z,77280.00
2018-08-04T08:02:43.667Z,62304.00
2018-08-04T08:03:43.676Z,62880.00
2018-08-04T08:04:43.681Z,75456.00
2018-08-04T08:05:43.691Z,77472.00
2018-08-04T08:06:43.707Z,76576.00
2018-08-04T08:07:43.715Z,74144.00
2018-08-04T08:08:43.723Z,71456.00
2018-08-04T08:09:43.733Z,72352.00
2018-08-04T08:10:43.906Z,72512.00
2018-08-04T08:11:43.760Z,65216.00
2018-08-04T08:12:43.772Z,61152.00
2018-08-04T08:13:43.784Z,64992.00
2018-08-04T08:14:43.797Z,63840.00
2018-08-04T08:15:43.808Z,61536.00
2018-08-04T08:16:43.817Z,60992.00
2018-08-04T08:17:43.831Z,59904.00
2018-08-04T08:18:43.845Z,59520.00
2018-08-04T08:19:43.856Z,58912.00
2018-08-04T08:20:43.873Z,58784.00
2018-08-04T08:21:43.887Z,57536.00
2018-08-04T08:22:43.899Z,57088.00
2018-08-04T08:23:43.909Z,59072.00
2018-08-04T08:24:43.949Z,58880.00
2018-08-04T08:25:43.944Z,60448.00
2018-08-04T08:26:43.956Z,61536.00
2018-08-04T08:27:43.970Z,59136.00
2018-08-04T08:28:43.980Z,57984.00
2018-08-04T08:29:43.995Z,56608.00
2018-08-04T08:30:44.011Z,55328.00
2018-08-04T08:31:44.024Z,56192.00
2018-08-04T08:32:44.122Z,56992.00
2018-08-04T08:33:44.058Z,56224.00
2018-08-04T08:34:44.074Z,57568.00
2018-08-04T08:35:44.087Z,57664.00
2018-08-04T08:36:44.098Z,55456.00
2018-08-04T08:37:44.114Z,54912.00
2018-08-04T08:38:44.133Z,54464.00
2018-08-04T08:39:44.146Z,53376.00
2018-08-04T08:40:44.158Z,53152.00
2018-08-04T08:41:44.178Z,54816.00
2018-08-04T08:42:44.188Z,54848.00
2018-08-04T08:43:44.204Z,56256.00
2018-08-04T08:44:44.220Z,58624.00
2018-08-04T08:45:44.238Z,57760.00
2018-08-04T08:46:44.252Z,56448.00
2018-08-04T08:47:44.266Z,56416.00
2018-08-04T08:48:44.276Z,57152.00
2018-08-04T08:49:44.291Z,60096.00
2018-08-04T08:50:44.307Z,61056.00
2018-08-04T08:51:44.320Z,61440.00
2018-08-04T08:52:44.341Z,60992.00
2018-08-04T08:53:44.386Z,58816.00
2018-08-04T08:54:44.367Z,58368.00
2018-08-04T08:55:44.383Z,59232.00
2018-08-04T08:56:44.400Z,60288.00
2018-08-04T08:57:44.417Z,60640.00
2018-08-04T08:58:44.431Z,60512.00
2018-08-04T08:59:44.445Z,60320.00
2018-08-04T09:00:44.459Z,60736.00
2018-08-04T09:01:44.474Z,61728.00
2018-08-04T09:02:44.489Z,62816.00
2018-08-04T09:03:44.506Z,64000.00
2018-08-04T09:04:44.527Z,66240.00
2018-08-04T09:05:44.544Z,66304.00
2018-08-04T09:06:44.560Z,66592.00
2018-08-04T09:07:44.575Z,67968.00
2018-08-04T09:08:44.612Z,68064.00
2018-08-04T09:09:44.607Z,67648.00
2018-08-04T09:10:44.624Z,68384.00
2018-08-04T09:11:44.644Z,69856.00
2018-08-04T09:12:44.653Z,70976.00
2018-08-04T09:13:44.669Z,72032.00
2018-08-04T09:14:44.687Z,73984.00
2018-08-04T09:15:44.778Z,77088.00
2018-08-04T09:16:44.725Z,78688.00
2018-08-04T09:17:44.743Z,80608.00
2018-08-04T09:18:44.760Z,81920.00
2018-08-04T09:19:44.795Z,82272.00
2018-08-04T09:20:44.834Z,80128.00
2018-08-04T09:21:44.807Z,74784.00
2018-08-04T09:22:44.826Z,68384.00
2018-08-04T09:23:44.842Z,65600.00
2018-08-04T09:24:44.865Z,64352.00
2018-08-04T09:25:44.883Z,63456.00
2018-08-04T09:26:44.897Z,63104.00
2018-08-04T09:27:44.914Z,62592.00
2018-08-04T09:28:44.936Z,60576.00
2018-08-04T09:29:44.955Z,59904.00
2018-08-04T09:30:44.987Z,59360.00
2018-08-04T09:31:44.991Z,58784.00
2018-08-04T09:32:45.005Z,58208.00
2018-08-04T09:33:45.021Z,57152.00
2018-08-04T09:34:45.041Z,57376.00
2018-08-04T09:35:45.055Z,56896.00
2018-08-04T09:36:45.078Z,56320.00
2018-08-04T09:37:45.095Z,55840.00
2018-08-04T09:38:45.113Z,55744.00
2018-08-04T09:39:45.130Z,55200.00
2018-08-04T09:40:45.145Z,54688.00
2018-08-04T09:41:45.161Z,54784.00
2018-08-04T09:42:45.183Z,54336.00
2018-08-04T09:43:45.202Z,53760.00
2018-08-04T09:44:45.217Z,53152.00
2018-08-04T09:45:45.232Z,52544.00
2018-08-04T09:46:45.257Z,52128.00
2018-08-04T09:47:45.268Z,51840.00
2018-08-04T09:48:45.290Z,51392.00
2018-08-04T09:49:45.309Z,51168.00
2018-08-04T09:50:45.328Z,50848.00
2018-08-04T09:51:45.345Z,50656.00
2018-08-04T09:52:45.357Z,50560.00
2018-08-04T09:53:45.379Z,50304.00
2018-08-04T09:54:45.395Z,50144.00
2018-08-04T09:55:45.410Z,50240.00
2018-08-04T09:56:45.432Z,50464.00
2018-08-04T09:57:45.451Z,50592.00
2018-08-04T09:58:45.466Z,54560.00
2018-08-04T09:59:45.485Z,82592.00
2018-08-04T10:00:45.507Z,122688.00
2018-08-04T10:01:45.523Z,120864.00
2018-08-04T10:02:45.541Z,97728.00
2018-08-04T10:03:45.557Z,96064.00
2018-08-04T10:04:45.571Z,99552.00
2018-08-04T10:05:45.590Z,99040.00
2018-08-04T10:06:45.612Z,96512.00
2018-08-04T10:07:45.628Z,95392.00
2018-08-04T10:08:45.642Z,96992.00
2018-08-04T10:09:45.661Z,96448.00
2018-08-04T10:10:45.679Z,94048.00
2018-08-04T10:11:45.697Z,89792.00
2018-08-04T10:12:45.720Z,89024.00
2018-08-04T10:13:45.738Z,88160.00
2018-08-04T10:14:45.751Z,89504.00
2018-08-04T10:15:45.768Z,91232.00
2018-08-04T10:16:45.792Z,90208.00
2018-08-04T10:17:45.810Z,89696.00
2018-08-04T10:18:45.829Z,89408.00
2018-08-04T10:19:45.846Z,90720.00
2018-08-04T10:20:45.859Z,90592.00
2018-08-04T10:21:45.878Z,88864.00
2018-08-04T10:22:45.896Z,87200.00
2018-08-04T10:23:45.913Z,84384.00
2018-08-04T10:24:45.937Z,85664.00
2018-08-04T10:25:45.954Z,84832.00
2018-08-04T10:26:45.975Z,82848.00
2018-08-04T10:27:45.992Z,82112.00
2018-08-04T10:28:46.004Z,78144.00
2018-08-04T10:29:46.022Z,75456.00
2018-08-04T10:30:46.047Z,74720.00
2018-08-04T10:31:46.064Z,73792.00
2018-08-04T10:32:46.118Z,75104.00
2018-08-04T10:33:46.094Z,74432.00
2018-08-04T10:34:46.113Z,72736.00
2018-08-04T10:35:46.152Z,70080.00
2018-08-04T10:36:46.152Z,70240.00
2018-08-04T10:37:46.172Z,70432.00
2018-08-04T10:38:46.189Z,66784.00
2018-08-04T10:39:46.206Z,65984.00
2018-08-04T10:40:46.222Z,63456.00
2018-08-04T10:41:46.239Z,67136.00
2018-08-04T10:42:46.260Z,67456.00
2018-08-04T10:43:46.275Z,65760.00
2018-08-04T10:44:46.301Z,64064.00
2018-08-04T10:45:46.320Z,64288.00
2018-08-04T10:46:46.332Z,65952.00
2018-08-04T10:47:46.351Z,64608.00
2018-08-04T10:48:46.375Z,63040.00
2018-08-04T10:49:46.394Z,60128.00
2018-08-04T10:50:46.413Z,60896.00
2018-08-04T10:51:46.430Z,64864.00
2018-08-04T10:52:46.447Z,63872.00
2018-08-04T10:53:46.467Z,64416.00
2018-08-04T10:54:46.484Z,66496.00
2018-08-04T10:55:46.524Z,65568.00
2018-08-04T10:56:46.525Z,66208.00
2018-08-04T10:57:46.565Z,66912.00
2018-08-04T10:58:46.565Z,65440.00
2018-08-04T10:59:46.584Z,65792.00
2018-08-04T11:00:46.598Z,66592.00
2018-08-04T11:01:46.617Z,65728.00
2018-08-04T11:02:46.643Z,68704.00
2018-08-04T11:03:46.726Z,71968.00
2018-08-04T11:04:46.674Z,74048.00
2018-08-04T11:05:46.693Z,76640.00
2018-08-04T11:06:46.712Z,73280.00
2018-08-04T11:07:46.734Z,71840.00
2018-08-04T11:08:46.754Z,74944.00
2018-08-04T11:09:46.772Z,78720.00
2018-08-04T11:10:46.793Z,78112.00
2018-08-04T11:11:46.810Z,77536.00
2018-08-04T11:12:46.826Z,77024.00
2018-08-04T11:13:46.841Z,78272.00
2018-08-04T11:14:46.860Z,82336.00
2018-08-04T11:15:46.878Z,81856.00
2018-08-04T11:16:46.900Z,85312.00
2018-08-04T11:17:46.918Z,88928.00
2018-08-04T11:18:46.932Z,90144.00
2018-08-04T11:19:46.949Z,90816.00
2018-08-04T11:20:46.970Z,91072.00
2018-08-04T11:21:46.988Z,88992.00
2018-08-04T11:22:47.010Z,89440.00
2018-08-04T11:23:47.025Z,89856.00
2018-08-04T11:24:47.038Z,86816.00
2018-08-04T11:25:47.057Z,78048.00
2018-08-04T11:26:47.074Z,76960.00
2018-08-04T11:27:47.090Z,57952.00
2018-08-04T11:28:47.111Z,20256.00
2018-08-04T11:29:47.128Z,9692.00
2018-08-04T11:30:47.262Z,8256.00
2018-08-04T11:31:47.164Z,7792.00
2018-08-04T11:32:47.172Z,7580.00
2018-08-04T11:33:47.188Z,7564.00
2018-08-04T11:34:47.208Z,7532.00
2018-08-04T11:35:47.223Z,7544.00
2018-08-04T11:36:47.234Z,7692.00
2018-08-04T11:37:47.255Z,7876.00
2018-08-04T11:38:47.262Z,7892.00
2018-08-04T11:39:47.276Z,8232.00
2018-08-04T11:40:47.294Z,8636.00
2018-08-04T11:41:47.309Z,8684.00
2018-08-04T11:42:47.321Z,8676.00
2018-08-04T11:43:47.334Z,8884.00
2018-08-04T11:44:47.339Z,9104.00
2018-08-04T11:45:47.353Z,8808.00
2018-08-04T11:46:47.364Z,8956.00
2018-08-04T11:47:47.377Z,8592.00
2018-08-04T11:48:47.392Z,9084.00
2018-08-04T11:49:47.401Z,9036.00
2018-08-04T11:50:47.412Z,8932.00
2018-08-04T11:51:47.419Z,8848.00
2018-08-04T11:52:47.433Z,9008.00
2018-08-04T11:53:47.443Z,8968.00
2018-08-04T11:54:47.460Z,8876.00
2018-08-04T11:55:47.463Z,8780.00
2018-08-04T11:56:47.470Z,8692.00
2018-08-04T11:57:47.479Z,8628.00
2018-08-04T11:58:47.491Z,8872.00
2018-08-04T11:59:47.498Z,8924.00
2018-08-04T12:00:47.512Z,8680.00
2018-08-04T12:01:47.561Z,8544.00
2018-08-04T12:02:47.531Z,8552.00
2018-08-04T12:03:47.540Z,8472.00
2018-08-04T12:04:47.545Z,8240.00
2018-08-04T12:05:47.554Z,7620.00
2018-08-04T12:06:47.567Z,7568.00
2018-08-04T12:07:47.575Z,7620.00
2018-08-04T12:08:47.581Z,7540.00
2018-08-04T12:09:47.597Z,7232.00
2018-08-04T12:10:47.599Z,7092.00
2018-08-04T12:11:47.606Z,6988.00
2018-08-04T12:12:47.620Z,6868.00
2018-08-04T12:13:47.629Z,6912.00
2018-08-04T12:14:47.636Z,6832.00
2018-08-04T12:15:47.644Z,6672.00
2018-08-04T12:16:47.651Z,6460.00
2018-08-04T12:17:47.657Z,6376.00
2018-08-04T12:18:47.666Z,6480.00
2018-08-04T12:19:47.673Z,6400.00